sensor_id;sensor_type;location;lat;lon;timestamp;P1;durP1;ratioP1;P2;durP2;ratioP2
65358;SDS011;52491;45.900;6.346;2023-02-28T00:01:01;6.03;;;3.88;;
65358;SDS011;52491;45.900;6.346;2023-02-28T00:03:27;4.85;;;3.78;;
65358;SDS011;52491;45.900;6.346;2023-02-28T00:05:52;4.97;;;3.72;;
65358;SDS011;52491;45.900;6.346;2023-02-28T00:08:18;6.07;;;4.45;;
65358;SDS011;52491;45.900;6.346;2023-02-28T00:10:44;5.53;;;4.18;;
65358;SDS011;52491;45.900;6.346;2023-02-28T00:13:09;4.90;;;3.92;;
65358;SDS011;52491;45.900;6.346;2023-02-28T00:15:36;6.07;;;4.28;;
65358;SDS011;52491;45.900;6.346;2023-02-28T00:18:01;5.05;;;3.47;;
65358;SDS011;52491;45.900;6.346;2023-02-28T00:20:28;4.90;;;3.60;;
65358;SDS011;52491;45.900;6.346;2023-02-28T00:22:54;4.75;;;3.60;;
65358;SDS011;52491;45.900;6.346;2023-02-28T00:25:22;5.68;;;4.45;;
65358;SDS011;52491;45.900;6.346;2023-02-28T00:27:48;5.28;;;4.00;;
65358;SDS011;52491;45.900;6.346;2023-02-28T00:30:16;5.43;;;4.55;;
65358;SDS011;52491;45.900;6.346;2023-02-28T00:32:44;5.07;;;4.07;;
65358;SDS011;52491;45.900;6.346;2023-02-28T00:35:10;6.53;;;4.95;;
65358;SDS011;52491;45.900;6.346;2023-02-28T00:37:36;6.15;;;4.53;;
65358;SDS011;52491;45.900;6.346;2023-02-28T00:40:02;5.63;;;4.40;;
65358;SDS011;52491;45.900;6.346;2023-02-28T00:42:35;5.13;;;4.15;;
65358;SDS011;52491;45.900;6.346;2023-02-28T00:45:01;5.57;;;4.72;;
65358;SDS011;52491;45.900;6.346;2023-02-28T00:47:29;6.15;;;4.75;;
65358;SDS011;52491;45.900;6.346;2023-02-28T00:49:55;5.70;;;4.47;;
65358;SDS011;52491;45.900;6.346;2023-02-28T00:52:21;7.72;;;5.43;;
65358;SDS011;52491;45.900;6.346;2023-02-28T00:54:47;5.72;;;3.92;;
65358;SDS011;52491;45.900;6.346;2023-02-28T00:57:12;6.90;;;4.95;;
65358;SDS011;52491;45.900;6.346;2023-02-28T00:59:38;5.18;;;3.80;;
65358;SDS011;52491;45.900;6.346;2023-02-28T01:02:03;5.75;;;5.15;;
65358;SDS011;52491;45.900;6.346;2023-02-28T01:04:29;6.10;;;4.95;;
65358;SDS011;52491;45.900;6.346;2023-02-28T01:06:55;5.20;;;4.43;;
65358;SDS011;52491;45.900;6.346;2023-02-28T01:09:21;5.25;;;4.28;;
65358;SDS011;52491;45.900;6.346;2023-02-28T01:11:46;6.78;;;4.70;;
65358;SDS011;52491;45.900;6.346;2023-02-28T01:14:13;6.28;;;4.63;;
65358;SDS011;52491;45.900;6.346;2023-02-28T01:16:40;5.57;;;4.45;;
65358;SDS011;52491;45.900;6.346;2023-02-28T01:19:06;5.68;;;4.05;;
65358;SDS011;52491;45.900;6.346;2023-02-28T01:21:32;5.68;;;4.72;;
65358;SDS011;52491;45.900;6.346;2023-02-28T01:23:58;5.90;;;4.75;;
65358;SDS011;52491;45.900;6.346;2023-02-28T01:26:23;5.55;;;4.97;;
65358;SDS011;52491;45.900;6.346;2023-02-28T01:28:50;5.55;;;4.47;;
65358;SDS011;52491;45.900;6.346;2023-02-28T01:31:17;5.82;;;4.65;;
65358;SDS011;52491;45.900;6.346;2023-02-28T01:33:44;5.05;;;4.55;;
65358;SDS011;52491;45.900;6.346;2023-02-28T01:36:12;5.78;;;4.30;;
65358;SDS011;52491;45.900;6.346;2023-02-28T01:38:42;6.25;;;4.28;;
65358;SDS011;52491;45.900;6.346;2023-02-28T01:41:08;6.35;;;4.60;;
65358;SDS011;52491;45.900;6.346;2023-02-28T01:46:08;5.53;;;4.13;;
65358;SDS011;52491;45.900;6.346;2023-02-28T01:48:35;6.40;;;4.32;;
65358;SDS011;52491;45.900;6.346;2023-02-28T01:51:08;6.55;;;4.90;;
65358;SDS011;52491;45.900;6.346;2023-02-28T01:53:39;6.90;;;4.82;;
65358;SDS011;52491;45.900;6.346;2023-02-28T01:56:11;6.50;;;4.72;;
65358;SDS011;52491;45.900;6.346;2023-02-28T01:58:46;5.30;;;4.38;;
65358;SDS011;52491;45.900;6.346;2023-02-28T02:01:13;5.45;;;3.50;;
65358;SDS011;52491;45.900;6.346;2023-02-28T02:03:56;5.75;;;4.80;;
65358;SDS011;52491;45.900;6.346;2023-02-28T02:06:34;5.10;;;4.60;;
65358;SDS011;52491;45.900;6.346;2023-02-28T02:09:03;6.03;;;4.45;;
65358;SDS011;52491;45.900;6.346;2023-02-28T02:11:29;4.90;;;4.18;;
65358;SDS011;52491;45.900;6.346;2023-02-28T02:22:12;5.95;;;4.15;;
65358;SDS011;52491;45.900;6.346;2023-02-28T02:25:23;4.45;;;3.92;;
65358;SDS011;52491;45.900;6.346;2023-02-28T02:39:42;4.75;;;4.10;;
65358;SDS011;52491;45.900;6.346;2023-02-28T02:42:25;6.35;;;4.28;;
65358;SDS011;52491;45.900;6.346;2023-02-28T02:45:07;4.88;;;4.18;;
65358;SDS011;52491;45.900;6.346;2023-02-28T02:47:37;5.40;;;4.28;;
65358;SDS011;52491;45.900;6.346;2023-02-28T02:50:07;5.50;;;4.15;;
65358;SDS011;52491;45.900;6.346;2023-02-28T02:52:43;4.18;;;3.67;;
65358;SDS011;52491;45.900;6.346;2023-02-28T02:55:13;4.22;;;3.80;;
65358;SDS011;52491;45.900;6.346;2023-02-28T02:58:00;5.10;;;4.00;;
65358;SDS011;52491;45.900;6.346;2023-02-28T03:00:40;5.50;;;4.72;;
65358;SDS011;52491;45.900;6.346;2023-02-28T03:03:10;5.30;;;4.03;;
65358;SDS011;52491;45.900;6.346;2023-02-28T03:05:48;6.88;;;4.53;;
65358;SDS011;52491;45.900;6.346;2023-02-28T03:08:14;4.38;;;3.42;;
65358;SDS011;52491;45.900;6.346;2023-02-28T03:10:41;4.70;;;3.30;;
65358;SDS011;52491;45.900;6.346;2023-02-28T03:15:52;4.97;;;3.63;;
65358;SDS011;52491;45.900;6.346;2023-02-28T03:18:44;5.10;;;4.03;;
65358;SDS011;52491;45.900;6.346;2023-02-28T03:26:36;4.70;;;3.85;;
65358;SDS011;52491;45.900;6.346;2023-02-28T03:29:15;4.38;;;3.60;;
65358;SDS011;52491;45.900;6.346;2023-02-28T03:32:00;4.22;;;3.63;;
65358;SDS011;52491;45.900;6.346;2023-02-28T03:34:37;3.83;;;3.45;;
65358;SDS011;52491;45.900;6.346;2023-02-28T03:37:17;4.03;;;3.58;;
65358;SDS011;52491;45.900;6.346;2023-02-28T03:39:47;7.47;;;3.78;;
65358;SDS011;52491;45.900;6.346;2023-02-28T03:42:19;4.97;;;3.58;;
65358;SDS011;52491;45.900;6.346;2023-02-28T03:44:53;4.90;;;3.70;;
65358;SDS011;52491;45.900;6.346;2023-02-28T03:47:32;3.97;;;3.30;;
65358;SDS011;52491;45.900;6.346;2023-02-28T03:50:24;3.95;;;3.58;;
65358;SDS011;52491;45.900;6.346;2023-02-28T03:53:02;3.72;;;3.33;;
65358;SDS011;52491;45.900;6.346;2023-02-28T03:55:37;4.28;;;3.70;;
65358;SDS011;52491;45.900;6.346;2023-02-28T03:58:12;4.63;;;3.20;;
65358;SDS011;52491;45.900;6.346;2023-02-28T04:00:59;4.35;;;3.83;;
65358;SDS011;52491;45.900;6.346;2023-02-28T04:03:34;4.22;;;3.42;;
65358;SDS011;52491;45.900;6.346;2023-02-28T04:06:01;4.28;;;3.88;;
65358;SDS011;52491;45.900;6.346;2023-02-28T04:08:28;4.60;;;3.60;;
65358;SDS011;52491;45.900;6.346;2023-02-28T04:11:04;3.40;;;3.05;;
65358;SDS011;52491;45.900;6.346;2023-02-28T04:13:37;5.03;;;3.38;;
65358;SDS011;52491;45.900;6.346;2023-02-28T04:16:06;3.95;;;3.55;;
65358;SDS011;52491;45.900;6.346;2023-02-28T04:18:37;4.68;;;3.20;;
65358;SDS011;52491;45.900;6.346;2023-02-28T04:21:03;4.65;;;3.88;;
65358;SDS011;52491;45.900;6.346;2023-02-28T04:23:30;5.15;;;3.63;;
65358;SDS011;52491;45.900;6.346;2023-02-28T04:25:56;3.08;;;2.85;;
65358;SDS011;52491;45.900;6.346;2023-02-28T04:28:22;4.45;;;3.80;;
65358;SDS011;52491;45.900;6.346;2023-02-28T04:30:47;3.15;;;2.85;;
65358;SDS011;52491;45.900;6.346;2023-02-28T04:33:13;3.45;;;3.15;;
65358;SDS011;52491;45.900;6.346;2023-02-28T04:35:38;5.00;;;3.95;;
65358;SDS011;52491;45.900;6.346;2023-02-28T04:38:04;4.30;;;3.22;;
65358;SDS011;52491;45.900;6.346;2023-02-28T04:40:30;3.28;;;2.90;;
65358;SDS011;52491;45.900;6.346;2023-02-28T04:42:55;3.45;;;2.83;;
65358;SDS011;52491;45.900;6.346;2023-02-28T04:45:21;3.08;;;2.78;;
65358;SDS011;52491;45.900;6.346;2023-02-28T04:47:46;3.72;;;3.40;;
65358;SDS011;52491;45.900;6.346;2023-02-28T04:50:12;3.35;;;2.70;;
65358;SDS011;52491;45.900;6.346;2023-02-28T04:52:37;5.45;;;3.28;;
65358;SDS011;52491;45.900;6.346;2023-02-28T04:55:03;3.38;;;3.08;;
65358;SDS011;52491;45.900;6.346;2023-02-28T04:57:30;3.50;;;2.90;;
65358;SDS011;52491;45.900;6.346;2023-02-28T04:59:56;4.03;;;3.63;;
65358;SDS011;52491;45.900;6.346;2023-02-28T05:02:21;3.45;;;3.15;;
65358;SDS011;52491;45.900;6.346;2023-02-28T05:04:48;2.78;;;2.42;;
65358;SDS011;52491;45.900;6.346;2023-02-28T05:07:14;3.00;;;2.33;;
65358;SDS011;52491;45.900;6.346;2023-02-28T05:09:39;4.18;;;3.42;;
65358;SDS011;52491;45.900;6.346;2023-02-28T05:12:05;6.20;;;3.70;;
65358;SDS011;52491;45.900;6.346;2023-02-28T05:14:31;4.00;;;3.60;;
65358;SDS011;52491;45.900;6.346;2023-02-28T05:16:56;4.53;;;3.70;;
65358;SDS011;52491;45.900;6.346;2023-02-28T05:19:22;3.85;;;3.22;;
65358;SDS011;52491;45.900;6.346;2023-02-28T05:21:49;4.05;;;3.20;;
65358;SDS011;52491;45.900;6.346;2023-02-28T05:24:17;5.40;;;3.20;;
65358;SDS011;52491;45.900;6.346;2023-02-28T05:26:48;3.13;;;2.83;;
65358;SDS011;52491;45.900;6.346;2023-02-28T05:29:17;4.22;;;3.03;;
65358;SDS011;52491;45.900;6.346;2023-02-28T05:31:42;3.80;;;3.20;;
65358;SDS011;52491;45.900;6.346;2023-02-28T05:34:08;6.43;;;3.28;;
65358;SDS011;52491;45.900;6.346;2023-02-28T05:36:36;4.78;;;3.75;;
65358;SDS011;52491;45.900;6.346;2023-02-28T05:39:02;3.10;;;2.80;;
65358;SDS011;52491;45.900;6.346;2023-02-28T05:41:29;3.45;;;2.95;;
65358;SDS011;52491;45.900;6.346;2023-02-28T05:43:54;4.75;;;3.05;;
65358;SDS011;52491;45.900;6.346;2023-02-28T05:46:20;7.25;;;2.90;;
65358;SDS011;52491;45.900;6.346;2023-02-28T05:48:46;4.38;;;2.65;;
65358;SDS011;52491;45.900;6.346;2023-02-28T05:51:13;4.78;;;3.10;;
65358;SDS011;52491;45.900;6.346;2023-02-28T05:53:38;4.43;;;2.80;;
65358;SDS011;52491;45.900;6.346;2023-02-28T05:56:04;3.10;;;2.80;;
65358;SDS011;52491;45.900;6.346;2023-02-28T05:58:30;3.20;;;2.80;;
65358;SDS011;52491;45.900;6.346;2023-02-28T06:00:57;2.75;;;2.28;;
65358;SDS011;52491;45.900;6.346;2023-02-28T06:03:23;6.00;;;2.58;;
65358;SDS011;52491;45.900;6.346;2023-02-28T06:05:49;3.25;;;2.95;;
65358;SDS011;52491;45.900;6.346;2023-02-28T06:08:15;3.05;;;2.70;;
65358;SDS011;52491;45.900;6.346;2023-02-28T06:10:41;5.63;;;2.70;;
65358;SDS011;52491;45.900;6.346;2023-02-28T06:13:06;4.25;;;3.85;;
65358;SDS011;52491;45.900;6.346;2023-02-28T06:15:32;6.40;;;3.08;;
65358;SDS011;52491;45.900;6.346;2023-02-28T06:17:58;6.93;;;3.33;;
65358;SDS011;52491;45.900;6.346;2023-02-28T06:20:24;9.50;;;2.90;;
65358;SDS011;52491;45.900;6.346;2023-02-28T06:22:54;4.95;;;2.80;;
65358;SDS011;52491;45.900;6.346;2023-02-28T06:25:24;5.05;;;2.35;;
65358;SDS011;52491;45.900;6.346;2023-02-28T06:27:50;12.82;;;6.75;;
65358;SDS011;52491;45.900;6.346;2023-02-28T06:30:16;8.05;;;3.70;;
65358;SDS011;52491;45.900;6.346;2023-02-28T06:32:42;8.77;;;3.83;;
65358;SDS011;52491;45.900;6.346;2023-02-28T06:35:07;14.13;;;5.50;;
65358;SDS011;52491;45.900;6.346;2023-02-28T06:37:33;32.47;;;3.95;;
65358;SDS011;52491;45.900;6.346;2023-02-28T06:39:59;6.53;;;4.35;;
65358;SDS011;52491;45.900;6.346;2023-02-28T06:42:24;14.05;;;4.90;;
65358;SDS011;52491;45.900;6.346;2023-02-28T06:44:56;14.55;;;5.22;;
65358;SDS011;52491;45.900;6.346;2023-02-28T06:47:22;5.80;;;4.13;;
65358;SDS011;52491;45.900;6.346;2023-02-28T06:49:49;10.55;;;5.15;;
65358;SDS011;52491;45.900;6.346;2023-02-28T06:52:15;15.43;;;6.32;;
65358;SDS011;52491;45.900;6.346;2023-02-28T06:54:41;6.18;;;5.03;;
65358;SDS011;52491;45.900;6.346;2023-02-28T06:57:07;21.60;;;5.40;;
65358;SDS011;52491;45.900;6.346;2023-02-28T06:59:33;8.82;;;6.35;;
65358;SDS011;52491;45.900;6.346;2023-02-28T07:02:00;10.55;;;5.60;;
65358;SDS011;52491;45.900;6.346;2023-02-28T07:04:27;14.20;;;6.03;;
65358;SDS011;52491;45.900;6.346;2023-02-28T07:06:54;10.55;;;5.65;;
65358;SDS011;52491;45.900;6.346;2023-02-28T07:09:21;11.00;;;5.65;;
65358;SDS011;52491;45.900;6.346;2023-02-28T07:11:47;12.95;;;4.90;;
65358;SDS011;52491;45.900;6.346;2023-02-28T07:14:13;8.00;;;5.63;;
65358;SDS011;52491;45.900;6.346;2023-02-28T07:16:39;8.50;;;5.40;;
65358;SDS011;52491;45.900;6.346;2023-02-28T07:19:05;12.98;;;5.53;;
65358;SDS011;52491;45.900;6.346;2023-02-28T07:21:30;12.80;;;6.45;;
65358;SDS011;52491;45.900;6.346;2023-02-28T07:23:56;10.52;;;7.55;;
65358;SDS011;52491;45.900;6.346;2023-02-28T07:26:22;10.75;;;6.32;;
65358;SDS011;52491;45.900;6.346;2023-02-28T07:28:48;9.57;;;6.18;;
65358;SDS011;52491;45.900;6.346;2023-02-28T07:31:14;8.90;;;6.85;;
65358;SDS011;52491;45.900;6.346;2023-02-28T07:33:41;10.43;;;5.50;;
65358;SDS011;52491;45.900;6.346;2023-02-28T07:36:08;10.90;;;6.07;;
65358;SDS011;52491;45.900;6.346;2023-02-28T07:38:40;12.65;;;6.70;;
65358;SDS011;52491;45.900;6.346;2023-02-28T07:41:10;13.23;;;6.38;;
65358;SDS011;52491;45.900;6.346;2023-02-28T07:43:35;12.98;;;5.78;;
65358;SDS011;52491;45.900;6.346;2023-02-28T07:46:05;11.07;;;5.15;;
65358;SDS011;52491;45.900;6.346;2023-02-28T07:48:34;8.20;;;5.50;;
65358;SDS011;52491;45.900;6.346;2023-02-28T07:51:00;6.35;;;4.90;;
65358;SDS011;52491;45.900;6.346;2023-02-28T07:53:27;6.97;;;5.97;;
65358;SDS011;52491;45.900;6.346;2023-02-28T07:55:57;6.97;;;6.28;;
65358;SDS011;52491;45.900;6.346;2023-02-28T07:58:24;11.30;;;5.45;;
65358;SDS011;52491;45.900;6.346;2023-02-28T08:00:51;6.82;;;6.13;;
65358;SDS011;52491;45.900;6.346;2023-02-28T08:03:17;7.38;;;6.40;;
65358;SDS011;52491;45.900;6.346;2023-02-28T08:05:45;10.57;;;6.82;;
65358;SDS011;52491;45.900;6.346;2023-02-28T08:08:10;8.48;;;6.22;;
65358;SDS011;52491;45.900;6.346;2023-02-28T08:10:36;7.32;;;6.55;;
65358;SDS011;52491;45.900;6.346;2023-02-28T08:13:02;11.50;;;7.53;;
65358;SDS011;52491;45.900;6.346;2023-02-28T08:15:28;16.42;;;6.70;;
65358;SDS011;52491;45.900;6.346;2023-02-28T08:17:54;8.18;;;7.10;;
65358;SDS011;52491;45.900;6.346;2023-02-28T08:20:21;7.40;;;6.57;;
65358;SDS011;52491;45.900;6.346;2023-02-28T08:22:48;6.70;;;5.97;;
65358;SDS011;52491;45.900;6.346;2023-02-28T08:25:13;12.15;;;7.10;;
65358;SDS011;52491;45.900;6.346;2023-02-28T08:27:39;7.35;;;6.43;;
65358;SDS011;52491;45.900;6.346;2023-02-28T08:30:05;6.65;;;6.07;;
65358;SDS011;52491;45.900;6.346;2023-02-28T08:32:32;8.10;;;6.13;;
65358;SDS011;52491;45.900;6.346;2023-02-28T08:34:58;10.82;;;6.35;;
65358;SDS011;52491;45.900;6.346;2023-02-28T08:37:24;6.88;;;6.03;;
65358;SDS011;52491;45.900;6.346;2023-02-28T08:39:50;8.40;;;6.85;;
65358;SDS011;52491;45.900;6.346;2023-02-28T08:42:15;7.85;;;6.70;;
65358;SDS011;52491;45.900;6.346;2023-02-28T08:44:41;7.30;;;6.35;;
65358;SDS011;52491;45.900;6.346;2023-02-28T08:47:07;8.13;;;6.80;;
65358;SDS011;52491;45.900;6.346;2023-02-28T08:49:33;6.70;;;5.85;;
65358;SDS011;52491;45.900;6.346;2023-02-28T08:51:58;6.47;;;5.85;;
65358;SDS011;52491;45.900;6.346;2023-02-28T08:54:24;6.53;;;5.47;;
65358;SDS011;52491;45.900;6.346;2023-02-28T08:56:50;7.00;;;5.55;;
65358;SDS011;52491;45.900;6.346;2023-02-28T08:59:15;7.07;;;5.45;;
65358;SDS011;52491;45.900;6.346;2023-02-28T09:01:41;7.28;;;5.88;;
65358;SDS011;52491;45.900;6.346;2023-02-28T09:04:08;6.35;;;5.72;;
65358;SDS011;52491;45.900;6.346;2023-02-28T09:06:36;6.07;;;5.13;;
65358;SDS011;52491;45.900;6.346;2023-02-28T09:09:01;8.88;;;5.80;;
65358;SDS011;52491;45.900;6.346;2023-02-28T09:11:29;7.60;;;5.60;;
65358;SDS011;52491;45.900;6.346;2023-02-28T09:13:54;5.90;;;5.25;;
65358;SDS011;52491;45.900;6.346;2023-02-28T09:16:20;6.70;;;5.72;;
65358;SDS011;52491;45.900;6.346;2023-02-28T09:18:47;7.65;;;5.40;;
65358;SDS011;52491;45.900;6.346;2023-02-28T09:21:14;5.85;;;5.07;;
65358;SDS011;52491;45.900;6.346;2023-02-28T09:23:42;5.30;;;4.78;;
65358;SDS011;52491;45.900;6.346;2023-02-28T09:26:13;5.32;;;4.82;;
65358;SDS011;52491;45.900;6.346;2023-02-28T09:28:40;5.18;;;4.65;;
65358;SDS011;52491;45.900;6.346;2023-02-28T09:31:05;6.80;;;6.10;;
65358;SDS011;52491;45.900;6.346;2023-02-28T09:33:31;10.52;;;5.60;;
65358;SDS011;52491;45.900;6.346;2023-02-28T09:35:58;5.30;;;4.70;;
65358;SDS011;52491;45.900;6.346;2023-02-28T09:38:25;5.60;;;4.80;;
65358;SDS011;52491;45.900;6.346;2023-02-28T09:40:53;5.40;;;4.88;;
65358;SDS011;52491;45.900;6.346;2023-02-28T09:43:22;6.13;;;4.93;;
65358;SDS011;52491;45.900;6.346;2023-02-28T09:45:55;4.47;;;4.07;;
65358;SDS011;52491;45.900;6.346;2023-02-28T09:51:02;5.07;;;4.57;;
65358;SDS011;52491;45.900;6.346;2023-02-28T09:53:34;5.20;;;4.10;;
65358;SDS011;52491;45.900;6.346;2023-02-28T09:56:05;5.10;;;4.60;;
65358;SDS011;52491;45.900;6.346;2023-02-28T10:01:31;5.38;;;4.88;;
65358;SDS011;52491;45.900;6.346;2023-02-28T10:04:08;5.18;;;4.68;;
65358;SDS011;52491;45.900;6.346;2023-02-28T10:06:53;4.30;;;3.85;;
65358;SDS011;52491;45.900;6.346;2023-02-28T10:09:26;5.22;;;4.78;;
65358;SDS011;52491;45.900;6.346;2023-02-28T10:12:00;5.72;;;3.83;;
65358;SDS011;52491;45.900;6.346;2023-02-28T10:14:34;4.43;;;3.80;;
65358;SDS011;52491;45.900;6.346;2023-02-28T10:18:03;6.05;;;3.92;;
65358;SDS011;52491;45.900;6.346;2023-02-28T10:22:58;5.07;;;4.47;;
65358;SDS011;52491;45.900;6.346;2023-02-28T10:25:27;4.05;;;3.65;;
65358;SDS011;52491;45.900;6.346;2023-02-28T10:27:56;3.67;;;3.38;;
65358;SDS011;52491;45.900;6.346;2023-02-28T10:30:35;6.70;;;4.03;;
65358;SDS011;52491;45.900;6.346;2023-02-28T10:33:04;4.65;;;4.18;;
65358;SDS011;52491;45.900;6.346;2023-02-28T10:35:29;3.95;;;3.58;;
65358;SDS011;52491;45.900;6.346;2023-02-28T10:37:56;4.18;;;3.78;;
65358;SDS011;52491;45.900;6.346;2023-02-28T10:40:27;4.25;;;3.92;;
65358;SDS011;52491;45.900;6.346;2023-02-28T10:45:30;5.05;;;3.70;;
65358;SDS011;52491;45.900;6.346;2023-02-28T10:55:35;4.00;;;3.10;;
65358;SDS011;52491;45.900;6.346;2023-02-28T10:58:01;4.80;;;4.13;;
65358;SDS011;52491;45.900;6.346;2023-02-28T11:00:36;3.50;;;3.20;;
65358;SDS011;52491;45.900;6.346;2023-02-28T11:03:02;4.60;;;4.20;;
65358;SDS011;52491;45.900;6.346;2023-02-28T11:05:54;4.22;;;3.83;;
65358;SDS011;52491;45.900;6.346;2023-02-28T11:08:20;4.28;;;3.83;;
65358;SDS011;52491;45.900;6.346;2023-02-28T11:10:46;3.78;;;3.47;;
65358;SDS011;52491;45.900;6.346;2023-02-28T11:13:19;3.70;;;3.40;;
65358;SDS011;52491;45.900;6.346;2023-02-28T11:15:57;4.35;;;3.60;;
65358;SDS011;52491;45.900;6.346;2023-02-28T11:20:51;6.50;;;5.55;;
65358;SDS011;52491;45.900;6.346;2023-02-28T11:23:20;10.38;;;9.35;;
65358;SDS011;52491;45.900;6.346;2023-02-28T11:25:49;12.38;;;10.45;;
65358;SDS011;52491;45.900;6.346;2023-02-28T11:28:29;10.32;;;9.32;;
65358;SDS011;52491;45.900;6.346;2023-02-28T11:33:30;9.38;;;8.57;;
65358;SDS011;52491;45.900;6.346;2023-02-28T11:36:00;9.73;;;8.93;;
65358;SDS011;52491;45.900;6.346;2023-02-28T11:38:34;8.85;;;8.00;;
65358;SDS011;52491;45.900;6.346;2023-02-28T11:49:28;7.15;;;3.53;;
65358;SDS011;52491;45.900;6.346;2023-02-28T11:55:07;5.70;;;3.33;;
65358;SDS011;52491;45.900;6.346;2023-02-28T12:09:02;7.85;;;2.60;;
65358;SDS011;52491;45.900;6.346;2023-02-28T12:20:05;4.63;;;2.25;;
65358;SDS011;52491;45.900;6.346;2023-02-28T12:23:05;2.83;;;2.58;;
65358;SDS011;52491;45.900;6.346;2023-02-28T12:28:46;4.18;;;2.58;;
65358;SDS011;52491;45.900;6.346;2023-02-28T12:31:29;2.70;;;1.95;;
65358;SDS011;52491;45.900;6.346;2023-02-28T12:34:01;2.03;;;1.88;;
65358;SDS011;52491;45.900;6.346;2023-02-28T12:36:31;1.33;;;1.23;;
65358;SDS011;52491;45.900;6.346;2023-02-28T12:39:01;1.90;;;1.70;;
65358;SDS011;52491;45.900;6.346;2023-02-28T12:41:36;3.85;;;2.33;;
65358;SDS011;52491;45.900;6.346;2023-02-28T12:46:57;3.53;;;2.13;;
65358;SDS011;52491;45.900;6.346;2023-02-28T12:49:34;3.05;;;1.80;;
65358;SDS011;52491;45.900;6.346;2023-02-28T12:52:06;2.50;;;1.80;;
65358;SDS011;52491;45.900;6.346;2023-02-28T12:58:35;3.03;;;2.25;;
65358;SDS011;52491;45.900;6.346;2023-02-28T13:00:36;2.80;;;2.20;;
65358;SDS011;52491;45.900;6.346;2023-02-28T13:05:50;2.60;;;2.22;;
65358;SDS011;52491;45.900;6.346;2023-02-28T13:11:22;2.25;;;1.60;;
65358;SDS011;52491;45.900;6.346;2023-02-28T13:14:05;2.05;;;1.60;;
65358;SDS011;52491;45.900;6.346;2023-02-28T13:19:32;2.35;;;1.90;;
65358;SDS011;52491;45.900;6.346;2023-02-28T13:22:00;1.95;;;1.67;;
65358;SDS011;52491;45.900;6.346;2023-02-28T13:24:43;2.00;;;1.80;;
65358;SDS011;52491;45.900;6.346;2023-02-28T13:27:20;1.95;;;1.83;;
65358;SDS011;52491;45.900;6.346;2023-02-28T13:29:50;1.80;;;1.70;;
65358;SDS011;52491;45.900;6.346;2023-02-28T13:39:55;1.58;;;1.48;;
65358;SDS011;52491;45.900;6.346;2023-02-28T13:42:35;1.80;;;1.70;;
65358;SDS011;52491;45.900;6.346;2023-02-28T13:50:23;3.95;;;2.40;;
65358;SDS011;52491;45.900;6.346;2023-02-28T13:55:51;2.33;;;1.83;;
65358;SDS011;52491;45.900;6.346;2023-02-28T14:06:58;2.15;;;1.95;;
65358;SDS011;52491;45.900;6.346;2023-02-28T14:09:25;1.52;;;1.42;;
65358;SDS011;52491;45.900;6.346;2023-02-28T14:12:17;2.15;;;1.63;;
65358;SDS011;52491;45.900;6.346;2023-02-28T14:15:02;3.75;;;1.70;;
65358;SDS011;52491;45.900;6.346;2023-02-28T14:17:30;2.38;;;1.60;;
65358;SDS011;52491;45.900;6.346;2023-02-28T14:19:57;2.88;;;1.70;;
65358;SDS011;52491;45.900;6.346;2023-02-28T14:36:58;1.83;;;1.73;;
65358;SDS011;52491;45.900;6.346;2023-02-28T14:39:27;2.70;;;2.47;;
65358;SDS011;52491;45.900;6.346;2023-02-28T14:41:55;2.10;;;1.90;;
65358;SDS011;52491;45.900;6.346;2023-02-28T14:44:28;1.67;;;1.58;;
65358;SDS011;52491;45.900;6.346;2023-02-28T14:46:57;1.58;;;1.45;;
65358;SDS011;52491;45.900;6.346;2023-02-28T14:49:37;1.42;;;1.20;;
65358;SDS011;52491;45.900;6.346;2023-02-28T14:55:22;1.83;;;1.50;;
65358;SDS011;52491;45.900;6.346;2023-02-28T14:57:41;2.08;;;1.60;;
65358;SDS011;52491;45.900;6.346;2023-02-28T15:02:47;1.65;;;1.55;;
65358;SDS011;52491;45.900;6.346;2023-02-28T15:07:42;2.50;;;1.88;;
65358;SDS011;52491;45.900;6.346;2023-02-28T15:10:19;1.60;;;1.50;;
65358;SDS011;52491;45.900;6.346;2023-02-28T15:12:52;1.60;;;1.50;;
65358;SDS011;52491;45.900;6.346;2023-02-28T15:18:14;1.40;;;1.30;;
65358;SDS011;52491;45.900;6.346;2023-02-28T15:20:46;2.13;;;1.90;;
65358;SDS011;52491;45.900;6.346;2023-02-28T15:23:12;1.70;;;1.60;;
65358;SDS011;52491;45.900;6.346;2023-02-28T15:25:40;2.65;;;1.60;;
65358;SDS011;52491;45.900;6.346;2023-02-28T15:28:09;1.90;;;1.35;;
65358;SDS011;52491;45.900;6.346;2023-02-28T15:30:49;1.87;;;1.77;;
65358;SDS011;52491;45.900;6.346;2023-02-28T15:33:29;1.83;;;1.40;;
65358;SDS011;52491;45.900;6.346;2023-02-28T15:36:10;1.70;;;1.45;;
65358;SDS011;52491;45.900;6.346;2023-02-28T15:38:38;1.48;;;1.38;;
65358;SDS011;52491;45.900;6.346;2023-02-28T15:41:04;2.15;;;1.98;;
65358;SDS011;52491;45.900;6.346;2023-02-28T15:43:36;1.52;;;1.42;;
65358;SDS011;52491;45.900;6.346;2023-02-28T15:46:08;2.15;;;1.50;;
65358;SDS011;52491;45.900;6.346;2023-02-28T15:53:41;2.40;;;1.63;;
65358;SDS011;52491;45.900;6.346;2023-02-28T15:58:55;1.73;;;1.58;;
65358;SDS011;52491;45.900;6.346;2023-02-28T16:01:26;1.52;;;1.42;;
65358;SDS011;52491;45.900;6.346;2023-02-28T16:03:56;3.03;;;2.70;;
65358;SDS011;52491;45.900;6.346;2023-02-28T16:06:44;2.25;;;1.88;;
65358;SDS011;52491;45.900;6.346;2023-02-28T16:09:12;2.47;;;2.25;;
65358;SDS011;52491;45.900;6.346;2023-02-28T16:11:48;2.35;;;1.92;;
65358;SDS011;52491;45.900;6.346;2023-02-28T16:14:19;2.85;;;2.15;;
65358;SDS011;52491;45.900;6.346;2023-02-28T16:16:50;1.95;;;1.75;;
65358;SDS011;52491;45.900;6.346;2023-02-28T16:19:18;1.80;;;1.70;;
65358;SDS011;52491;45.900;6.346;2023-02-28T16:21:44;2.20;;;1.85;;
65358;SDS011;52491;45.900;6.346;2023-02-28T16:24:10;2.92;;;2.35;;
65358;SDS011;52491;45.900;6.346;2023-02-28T16:26:36;2.00;;;1.50;;
65358;SDS011;52491;45.900;6.346;2023-02-28T16:29:05;2.03;;;1.88;;
65358;SDS011;52491;45.900;6.346;2023-02-28T16:31:35;1.70;;;1.60;;
65358;SDS011;52491;45.900;6.346;2023-02-28T16:34:02;3.55;;;2.08;;
65358;SDS011;52491;45.900;6.346;2023-02-28T16:36:28;2.67;;;1.88;;
65358;SDS011;52491;45.900;6.346;2023-02-28T16:38:54;1.85;;;1.75;;
65358;SDS011;52491;45.900;6.346;2023-02-28T16:41:20;2.13;;;1.60;;
65358;SDS011;52491;45.900;6.346;2023-02-28T16:43:49;2.47;;;2.25;;
65358;SDS011;52491;45.900;6.346;2023-02-28T16:46:16;3.38;;;2.33;;
65358;SDS011;52491;45.900;6.346;2023-02-28T16:48:43;3.45;;;2.58;;
65358;SDS011;52491;45.900;6.346;2023-02-28T16:51:16;2.35;;;2.03;;
65358;SDS011;52491;45.900;6.346;2023-02-28T16:53:42;3.67;;;2.55;;
65358;SDS011;52491;45.900;6.346;2023-02-28T16:56:16;2.20;;;1.67;;
65358;SDS011;52491;45.900;6.346;2023-02-28T16:58:44;2.83;;;2.05;;
65358;SDS011;52491;45.900;6.346;2023-02-28T17:01:10;2.85;;;2.50;;
65358;SDS011;52491;45.900;6.346;2023-02-28T17:03:36;2.20;;;2.00;;
65358;SDS011;52491;45.900;6.346;2023-02-28T17:06:03;2.38;;;2.17;;
65358;SDS011;52491;45.900;6.346;2023-02-28T17:08:30;1.98;;;1.77;;
65358;SDS011;52491;45.900;6.346;2023-02-28T17:10:57;2.38;;;1.92;;
65358;SDS011;52491;45.900;6.346;2023-02-28T17:13:23;2.33;;;2.13;;
65358;SDS011;52491;45.900;6.346;2023-02-28T17:15:49;3.10;;;2.47;;
65358;SDS011;52491;45.900;6.346;2023-02-28T17:18:15;3.10;;;2.10;;
65358;SDS011;52491;45.900;6.346;2023-02-28T17:20:44;4.13;;;2.30;;
65358;SDS011;52491;45.900;6.346;2023-02-28T17:23:11;3.03;;;2.72;;
65358;SDS011;52491;45.900;6.346;2023-02-28T17:25:36;2.75;;;2.25;;
65358;SDS011;52491;45.900;6.346;2023-02-28T17:28:02;4.70;;;2.83;;
65358;SDS011;52491;45.900;6.346;2023-02-28T17:30:28;3.55;;;2.00;;
65358;SDS011;52491;45.900;6.346;2023-02-28T17:32:57;4.28;;;2.67;;
65358;SDS011;52491;45.900;6.346;2023-02-28T17:35:23;2.45;;;2.25;;
65358;SDS011;52491;45.900;6.346;2023-02-28T17:37:49;2.15;;;1.92;;
65358;SDS011;52491;45.900;6.346;2023-02-28T17:40:15;4.30;;;2.28;;